Time;durP1;ratioP1;P1;durP2;ratioP2;P2;SDS_P1;SDS_P2;PMS_P1;PMS_P2;Temp;Humidity;BMP_temperature;BMP_pressure;BME280_temperature;BME280_humidity;BME280_pressure;Samples;Min_cycle;Max_cycle;Signal;HPM_P1;HPM_P2
2022/02/10 00:03:08;;;;;;;12.80;8.83;;;11.60;99.90;;;;;;5052165;28;20520;-69
2022/02/10 00:18:04;;;;;;;10.50;9.50;;;11.30;99.90;;;;;;5051498;28;20454;-71
2022/02/10 00:20:38;;;;;;;9.67;8.87;;;11.20;99.90;;;;;;5052153;28;20410;-68
2022/02/10 00:36:44;;;;;;;12.50;9.60;;;11.00;99.90;;;;;;5052052;28;20739;-69
2022/02/10 00:41:54;;;;;;;11.73;9.23;;;10.90;99.90;;;;;;5051725;28;20458;-69
2022/02/10 00:44:19;;;;;;;10.97;9.53;;;10.90;99.90;;;;;;5053849;28;20927;-69
2022/02/10 00:46:45;;;;;;;9.60;8.73;;;10.80;99.90;;;;;;5071776;28;20173;-74
2022/02/10 00:49:11;;;;;;;9.67;8.87;;;10.80;99.90;;;;;;5070788;28;20233;-69
2022/02/10 00:51:36;;;;;;;9.67;8.80;;;10.80;99.90;;;;;;5037408;28;20181;-69
2022/02/10 00:54:02;;;;;;;10.33;9.30;;;10.70;99.90;;;;;;5071089;28;20318;-69
2022/02/10 00:56:28;;;;;;;9.50;8.63;;;10.60;99.90;;;;;;5071930;28;20177;-68
2022/02/10 00:59:12;;;;;;;10.47;8.80;;;10.60;99.90;;;;;;5070786;28;20427;-69
2022/02/10 01:31:55;;;;;;;11.60;9.93;;;10.40;99.90;;;;;;5016974;28;20416;-69
2022/02/10 01:34:21;;;;;;;11.50;9.67;;;10.40;99.90;;;;;;5034988;28;20424;-69
2022/02/10 01:36:46;;;;;;;14.50;10.57;;;10.40;99.90;;;;;;5035113;28;20559;-69
2022/02/10 01:39:12;;;;;;;12.63;9.20;;;10.40;99.90;;;;;;5033884;28;20188;-69
2022/02/10 02:03:45;;;;;;;10.10;9.10;;;10.30;99.90;;;;;;5054710;28;20458;-68
2022/02/10 02:06:24;;;;;;;10.83;8.83;;;10.30;99.90;;;;;;5053835;28;20477;-69
2022/02/10 02:08:51;;;;;;;13.57;9.47;;;10.30;99.90;;;;;;5054735;28;20259;-75
2022/02/10 02:11:17;;;;;;;9.40;8.50;;;10.20;99.90;;;;;;5032404;28;20545;-69
2022/02/10 02:13:43;;;;;;;10.33;9.33;;;10.20;99.90;;;;;;5034221;28;20502;-68
2022/02/10 02:16:08;;;;;;;10.40;8.80;;;10.10;99.90;;;;;;5032994;28;20179;-69
2022/02/10 02:18:34;;;;;;;9.17;8.37;;;10.10;99.90;;;;;;5034119;28;20614;-69
2022/02/10 02:21:00;;;;;;;9.90;8.90;;;10.10;99.90;;;;;;5033480;28;20563;-69
2022/02/10 02:23:28;;;;;;;11.60;9.00;;;10.00;99.90;;;;;;5016654;28;20666;-69
2022/02/10 02:26:11;;;;;;;10.70;9.10;;;10.00;99.90;;;;;;5033408;28;20471;-73
2022/02/10 02:28:40;;;;;;;9.73;8.77;;;10.00;99.90;;;;;;5034338;28;20395;-68
2022/02/10 02:31:10;;;;;;;10.93;9.03;;;9.90;99.90;;;;;;5033701;28;20456;-68
2022/02/10 03:06:36;;;;;;;11.23;10.00;;;9.80;99.90;;;;;;5018310;28;20499;-69
2022/02/10 03:09:08;;;;;;;12.53;9.00;;;9.80;99.90;;;;;;5032402;28;20883;-69
2022/02/10 03:11:39;;;;;;;11.87;9.27;;;9.90;99.90;;;;;;5033245;28;20729;-69
2022/02/10 03:14:16;;;;;;;11.23;9.80;;;10.00;99.90;;;;;;5032361;28;20917;-69
2022/02/10 04:13:20;;;;;;;11.77;10.47;;;9.80;99.90;;;;;;5068226;28;20434;-69
2022/02/10 04:16:23;;;;;;;13.20;10.67;;;9.90;99.90;;;;;;5052361;28;20399;-69
2022/02/10 04:21:34;;;;;;;12.60;11.40;;;10.00;99.90;;;;;;5044947;28;20468;-69
2022/02/10 04:24:14;;;;;;;11.80;10.57;;;10.00;99.90;;;;;;5032278;28;20889;-74
2022/02/10 04:32:24;;;;;;;13.20;10.80;;;9.90;99.90;;;;;;5052237;28;20409;-68
2022/02/10 04:44:26;;;;;;;12.30;9.67;;;9.70;99.90;;;;;;5028541;28;20471;-68
2022/02/10 04:54:55;;;;;;;12.47;9.60;;;9.80;99.90;;;;;;5056524;28;20494;-68
2022/02/10 05:00:07;;;;;;;11.83;10.30;;;9.70;99.90;;;;;;5042519;28;20420;-68
2022/02/10 05:34:22;;;;;;;16.63;12.50;;;9.70;99.90;;;;;;5055026;28;20392;-68
2022/02/10 05:36:48;;;;;;;15.10;12.07;;;9.70;99.90;;;;;;5055275;28;20416;-68
2022/02/10 05:39:19;;;;;;;12.67;11.17;;;9.70;99.90;;;;;;5037139;28;20409;-69
2022/02/10 05:49:53;;;;;;;15.03;11.30;;;9.70;99.90;;;;;;5038749;28;20184;-68
2022/02/10 06:00:24;;;;;;;17.10;11.77;;;9.70;99.90;;;;;;5034424;28;20476;-68
2022/02/10 06:49:15;;;;;;;11.93;10.63;;;9.80;99.90;;;;;;5054307;28;20443;-66
2022/02/10 06:54:30;;;;;;;10.13;9.17;;;9.90;99.90;;;;;;5033912;28;20726;-68
2022/02/10 07:08:31;;;;;;;9.83;9.03;;;9.80;99.90;;;;;;5025915;28;20429;-69
2022/02/10 07:14:06;;;;;;;11.87;10.60;;;9.70;99.90;;;;;;5053697;28;20412;-68
2022/02/10 07:46:58;;;;;;;14.90;9.53;;;10.10;99.90;;;;;;5039976;28;20423;-68
2022/02/10 07:49:26;;;;;;;10.07;9.10;;;10.10;99.90;;;;;;5047086;28;20442;-68
2022/02/10 07:52:15;;;;;;;10.70;9.77;;;10.10;99.90;;;;;;5038511;28;20432;-68
2022/02/10 07:57:30;;;;;;;12.23;9.77;;;10.10;99.90;;;;;;5052080;28;20421;-69
2022/02/10 09:05:16;;;;;;;12.37;11.17;;;10.30;99.90;;;;;;5025940;28;20189;-67
2022/02/10 09:49:47;;;;;;;14.27;11.37;;;10.50;99.90;;;;;;5055130;28;20409;-75
2022/02/10 09:56:51;;;;;;;12.87;11.20;;;10.60;99.90;;;;;;5054300;28;20763;-67
2022/02/10 10:02:02;;;;;;;13.23;11.57;;;10.70;99.90;;;;;;5055182;28;20455;-68
2022/02/10 10:04:43;;;;;;;11.87;10.50;;;10.70;99.90;;;;;;5054537;28;20408;-67
2022/02/10 10:15:47;;;;;;;12.47;11.17;;;10.70;99.90;;;;;;5054412;28;20400;-68
2022/02/10 10:23:53;;;;;;;14.63;13.20;;;10.60;99.90;;;;;;5053948;28;20463;-68
2022/02/10 10:56:49;;;;;;;14.10;12.70;;;10.70;99.90;;;;;;5054161;28;20452;-68
2022/02/10 11:41:08;;;;;;;15.00;13.60;;;10.40;99.90;;;;;;5052306;28;20926;-67
2022/02/10 11:43:38;;;;;;;14.80;13.30;;;10.30;99.90;;;;;;5052615;28;20450;-68
2022/02/10 13:26:41;;;;;;;11.10;10.10;;;10.30;99.90;;;;;;5055790;28;20422;-68
2022/02/10 14:13:25;;;;;;;8.97;8.17;;;10.70;99.90;;;;;;5055050;28;20404;-68
2022/02/10 14:18:29;;;;;;;9.53;7.90;;;10.70;99.90;;;;;;5055389;28;20429;-68
2022/02/10 14:26:32;;;;;;;8.80;8.00;;;10.80;99.90;;;;;;5054626;28;20509;-68
2022/02/10 14:28:58;;;;;;;10.70;9.90;;;10.80;99.90;;;;;;5054423;28;20647;-68
2022/02/10 14:31:25;;;;;;;10.03;7.20;;;10.80;99.90;;;;;;5054753;28;20413;-68
2022/02/10 14:33:51;;;;;;;8.67;7.97;;;10.90;99.90;;;;;;5053966;28;20205;-68
2022/02/10 14:36:31;;;;;;;9.90;8.10;;;10.90;99.90;;;;;;5054188;28;20416;-68
2022/02/10 15:57:02;;;;;;;7.97;7.20;;;10.60;99.90;;;;;;5014218;28;20453;-68
2022/02/10 16:16:23;;;;;;;8.03;7.23;;;10.60;99.90;;;;;;5035822;28;20436;-69
2022/02/10 16:18:13;;;;;;;8.93;7.80;;;10.60;99.90;;;;;;5031217;28;20200;-67
2022/02/10 16:20:46;;;;;;;8.63;7.53;;;10.60;99.90;;;;;;5030897;28;20427;-71
2022/02/10 16:23:16;;;;;;;45.87;29.07;;;10.70;99.90;;;;;;5031818;28;20551;-68
2022/02/10 16:25:49;;;;;;;86.17;56.40;;;10.70;99.90;;;;;;5030868;28;20421;-73
2022/02/10 16:30:47;;;;;;;10.30;8.87;;;10.70;99.90;;;;;;5044399;28;20463;-70
2022/02/10 16:33:12;;;;;;;10.60;9.40;;;10.70;99.90;;;;;;5034718;28;20439;-69
2022/02/10 16:35:39;;;;;;;8.90;8.00;;;10.70;99.90;;;;;;5022992;28;20171;-76
2022/02/10 16:38:05;;;;;;;8.87;7.60;;;10.70;99.90;;;;;;5031957;28;20182;-67
2022/02/10 16:40:33;;;;;;;9.60;8.10;;;10.70;99.90;;;;;;5024912;28;20508;-67
2022/02/10 16:42:59;;;;;;;10.03;8.57;;;10.70;99.90;;;;;;5031094;28;20492;-68
2022/02/10 16:45:25;;;;;;;11.10;8.13;;;10.70;99.90;;;;;;5032117;28;20844;-67
2022/02/10 16:47:51;;;;;;;11.00;8.27;;;10.70;99.90;;;;;;5030291;28;20440;-67
2022/02/10 16:50:19;;;;;;;10.80;8.77;;;10.70;99.90;;;;;;5032021;28;20450;-68
2022/02/10 16:52:50;;;;;;;9.40;8.50;;;10.70;99.90;;;;;;5037098;28;20448;-69
2022/02/10 16:55:24;;;;;;;9.50;8.60;;;10.60;99.90;;;;;;5046580;28;20934;-68
2022/02/10 17:21:26;;;;;;;11.63;7.53;;;10.50;99.90;;;;;;5044862;28;20470;-67
2022/02/10 17:29:12;;;;;;;8.77;6.87;;;10.60;99.90;;;;;;5021243;28;20423;-67
2022/02/10 17:31:55;;;;;;;9.37;8.43;;;10.60;99.90;;;;;;5051348;28;20401;-67
2022/02/10 17:34:36;;;;;;;10.60;9.53;;;10.60;99.90;;;;;;5038093;28;20431;-67
2022/02/10 17:53:29;;;;;;;9.10;8.20;;;10.60;99.90;;;;;;5034749;28;20438;-67
2022/02/10 17:55:55;;;;;;;9.40;8.50;;;10.50;99.90;;;;;;5034390;28;20402;-67
2022/02/10 17:58:23;;;;;;;9.47;8.43;;;10.40;99.90;;;;;;5025956;28;20822;-66
2022/02/10 18:00:50;;;;;;;9.20;8.03;;;10.40;99.90;;;;;;5048644;28;20515;-67
2022/02/10 18:03:17;;;;;;;8.53;7.40;;;10.30;99.90;;;;;;5031767;28;20495;-67
2022/02/10 18:08:31;;;;;;;14.07;8.70;;;10.30;99.90;;;;;;5046586;28;20770;-67
2022/02/10 18:13:54;;;;;;;11.00;9.00;;;10.20;99.90;;;;;;5034924;28;20459;-67
2022/02/10 18:16:18;;;;;;;10.70;9.70;;;10.20;99.90;;;;;;5039860;28;20493;-67
2022/02/10 18:18:52;;;;;;;10.90;8.63;;;10.20;99.90;;;;;;5046969;28;20432;-75
2022/02/10 18:26:43;;;;;;;13.43;8.47;;;10.10;99.90;;;;;;5036604;28;20206;-67
2022/02/10 19:09:45;;;;;;;5.87;4.60;;;9.40;99.90;;;;;;5053723;28;20452;-67
2022/02/10 19:12:41;;;;;;;5.33;4.90;;;9.40;99.90;;;;;;5052335;28;20205;-67
2022/02/10 19:15:15;;;;;;;5.07;4.57;;;9.30;99.90;;;;;;5050454;28;20436;-67
2022/02/10 19:17:41;;;;;;;4.67;4.33;;;9.40;99.90;;;;;;5033223;28;20428;-67
2022/02/10 19:20:08;;;;;;;5.57;5.17;;;9.30;99.90;;;;;;5017557;28;20440;-67
2022/02/10 19:22:34;;;;;;;4.40;4.10;;;9.20;99.90;;;;;;5041406;28;20556;-67
2022/02/10 19:24:59;;;;;;;4.50;4.20;;;9.30;99.90;;;;;;5021589;28;20532;-67
2022/02/10 19:27:25;;;;;;;6.73;5.60;;;9.30;99.90;;;;;;5037791;28;20428;-67
2022/02/10 19:29:57;;;;;;;4.20;3.90;;;9.30;99.90;;;;;;5014903;28;20186;-72
2022/02/10 19:32:30;;;;;;;5.23;4.93;;;9.30;99.90;;;;;;5033120;28;20165;-67
2022/02/10 19:34:57;;;;;;;774.23;472.77;;;9.40;99.90;;;;;;5014692;28;20756;-68
2022/02/10 19:37:25;;;;;;;56.53;39.30;;;9.40;99.90;;;;;;5033339;28;20453;-67
2022/02/10 19:39:58;;;;;;;7.30;6.70;;;9.40;99.90;;;;;;5034896;28;20449;-77
2022/02/10 19:42:28;;;;;;;8.00;7.40;;;9.40;99.90;;;;;;5015402;28;20964;-67
2022/02/10 19:45:00;;;;;;;6.43;5.70;;;9.40;99.90;;;;;;5031940;28;20446;-68
2022/02/10 19:47:34;;;;;;;7.80;7.30;;;9.40;99.90;;;;;;5033071;28;20426;-67
2022/02/10 19:50:08;;;;;;;6.60;6.10;;;9.40;99.90;;;;;;5031799;28;20417;-68
2022/02/10 19:52:37;;;;;;;5.13;4.83;;;9.30;99.90;;;;;;4998850;28;20911;-67
2022/02/10 19:55:04;;;;;;;5.80;5.30;;;9.20;99.90;;;;;;5031740;28;20420;-68
2022/02/10 19:57:32;;;;;;;6.10;5.60;;;9.20;99.90;;;;;;5048815;28;20428;-68
2022/02/10 19:59:59;;;;;;;5.40;4.90;;;9.20;99.90;;;;;;5051856;28;20419;-68
2022/02/10 20:02:25;;;;;;;5.20;4.80;;;9.10;99.90;;;;;;5052313;28;20838;-67
2022/02/10 20:04:51;;;;;;;6.10;5.60;;;9.00;99.90;;;;;;5052215;28;20421;-79
2022/02/10 20:07:17;;;;;;;6.83;5.53;;;9.00;99.90;;;;;;5052346;28;20799;-68
2022/02/10 20:09:42;;;;;;;8.00;7.20;;;8.90;99.90;;;;;;5051983;28;20174;-68
2022/02/10 20:12:08;;;;;;;5.07;4.67;;;8.80;99.90;;;;;;5051664;28;20185;-73
2022/02/10 20:14:34;;;;;;;6.80;6.30;;;8.90;99.90;;;;;;5034244;28;20439;-67
2022/02/10 20:17:01;;;;;;;5.47;5.07;;;8.80;99.90;;;;;;5034099;28;20185;-67
2022/02/10 20:19:27;;;;;;;4.30;4.00;;;8.70;99.90;;;;;;5052659;28;20209;-67
2022/02/10 20:21:55;;;;;;;4.67;4.47;;;8.80;99.90;;;;;;5051688;28;20910;-74
2022/02/10 20:24:22;;;;;;;3.67;3.47;;;8.70;99.90;;;;;;5052119;28;20827;-67
2022/02/10 20:26:48;;;;;;;3.87;3.63;;;8.70;99.90;;;;;;5052328;28;20404;-67
2022/02/10 20:29:13;;;;;;;15.43;11.93;;;8.70;99.90;;;;;;5051496;28;20891;-66
2022/02/10 20:31:40;;;;;;;73.40;46.83;;;8.60;99.90;;;;;;5032899;28;20909;-66
2022/02/10 20:34:12;;;;;;;5.67;5.27;;;8.60;99.90;;;;;;5031267;28;20412;-67
2022/02/10 20:36:38;;;;;;;3.70;3.50;;;8.60;99.90;;;;;;5032110;28;20467;-67
2022/02/10 20:39:05;;;;;;;5.43;4.97;;;8.50;99.90;;;;;;5036276;28;20428;-67
2022/02/10 20:41:34;;;;;;;4.90;4.50;;;8.40;99.90;;;;;;5052061;28;20177;-67
2022/02/10 20:44:01;;;;;;;4.43;4.23;;;8.40;99.90;;;;;;5051130;28;20543;-67
2022/02/10 20:46:29;;;;;;;4.07;3.77;;;8.40;99.90;;;;;;5051695;28;20443;-67
2022/02/10 20:48:56;;;;;;;4.40;4.10;;;8.40;99.90;;;;;;5033660;28;20423;-74
2022/02/10 20:51:22;;;;;;;4.40;4.10;;;8.30;99.90;;;;;;5028804;28;20445;-68
2022/02/10 20:53:49;;;;;;;4.10;3.80;;;8.30;99.90;;;;;;5046764;28;20432;-67
2022/02/10 20:56:18;;;;;;;5.00;4.60;;;8.30;99.90;;;;;;5032261;28;20237;-68
2022/02/10 20:58:44;;;;;;;4.63;4.20;;;8.20;99.90;;;;;;5042554;28;20474;-67
2022/02/10 21:01:13;;;;;;;4.77;4.37;;;8.20;99.90;;;;;;5044061;28;20473;-67
2022/02/10 21:03:39;;;;;;;4.50;4.10;;;8.20;99.90;;;;;;5031850;28;20465;-67
2022/02/10 21:06:18;;;;;;;6.20;4.30;;;8.10;99.90;;;;;;5020228;28;20436;-67
2022/02/10 21:11:23;;;;;;;5.13;4.67;;;8.10;99.90;;;;;;5031362;28;20409;-67
2022/02/10 21:13:49;;;;;;;5.60;5.20;;;8.10;99.90;;;;;;5031987;28;20436;-67
2022/02/10 21:16:14;;;;;;;5.73;5.33;;;8.00;99.90;;;;;;5046303;28;20435;-67
2022/02/10 21:18:42;;;;;;;6.50;6.00;;;8.00;99.90;;;;;;5017437;28;20181;-67
2022/02/10 21:21:13;;;;;;;5.47;4.40;;;8.00;99.90;;;;;;5053459;28;20225;-67
2022/02/10 21:24:05;;;;;;;6.33;4.80;;;8.20;99.90;;;;;;5055624;28;20447;-67
2022/02/10 21:26:33;;;;;;;81.50;45.93;;;8.10;99.90;;;;;;5053313;28;20792;-66
2022/02/10 21:29:02;;;;;;;107.40;66.37;;;8.10;99.90;;;;;;5034842;28;20431;-74
2022/02/10 21:31:28;;;;;;;10.03;8.40;;;8.10;99.90;;;;;;5044042;28;20516;-67
2022/02/10 21:34:13;;;;;;;7.73;7.10;;;8.10;99.90;;;;;;5034870;28;20428;-68
2022/02/10 22:11:27;;;;;;;3.30;3.10;;;8.40;99.90;;;;;;5052100;28;20419;-67
2022/02/10 22:19:40;;;;;;;4.13;3.93;;;8.30;99.90;;;;;;5020644;28;20522;-67
2022/02/10 22:22:12;;;;;;;4.03;3.63;;;8.20;99.90;;;;;;5053575;28;20452;-68
2022/02/10 22:24:38;;;;;;;4.70;4.40;;;8.10;99.90;;;;;;5054253;28;20404;-67
2022/02/10 22:27:04;;;;;;;4.50;4.20;;;8.20;99.90;;;;;;5026295;28;20421;-68
2022/02/10 22:29:35;;;;;;;4.30;3.90;;;8.30;99.90;;;;;;5034363;28;20409;-67
2022/02/10 22:34:37;;;;;;;5.57;5.17;;;8.20;99.90;;;;;;5034411;28;20400;-67
2022/02/10 22:37:08;;;;;;;5.40;4.90;;;8.10;99.90;;;;;;5033336;28;20419;-74
2022/02/10 22:39:40;;;;;;;6.03;4.13;;;8.10;99.90;;;;;;5034354;28;20404;-67
2022/02/10 22:42:06;;;;;;;5.00;4.70;;;8.10;99.90;;;;;;5032890;28;20516;-68
2022/02/10 22:44:33;;;;;;;4.83;4.53;;;8.10;99.90;;;;;;5000135;28;20459;-67
2022/02/10 22:47:01;;;;;;;5.00;4.70;;;8.00;99.90;;;;;;5033834;28;20420;-72
2022/02/10 22:49:27;;;;;;;4.50;4.10;;;7.90;99.90;;;;;;5033723;28;20422;-67
2022/02/10 22:51:52;;;;;;;5.17;4.67;;;7.90;99.90;;;;;;5033976;28;20459;-67
2022/02/10 22:54:19;;;;;;;5.63;5.33;;;7.90;99.90;;;;;;5033126;28;20421;-67
2022/02/10 22:56:47;;;;;;;5.00;4.60;;;7.80;99.90;;;;;;5015591;28;20174;-67
2022/02/10 22:59:14;;;;;;;5.73;5.27;;;7.60;99.90;;;;;;5033317;28;20788;-67
2022/02/10 23:01:40;;;;;;;5.50;5.10;;;7.80;99.90;;;;;;5033840;28;20456;-67
2022/02/10 23:04:07;;;;;;;4.50;4.10;;;7.70;99.90;;;;;;5015259;28;20448;-68
2022/02/10 23:06:34;;;;;;;5.13;4.30;;;7.50;99.90;;;;;;5033363;28;20923;-67
2022/02/10 23:09:00;;;;;;;6.20;4.93;;;7.30;99.90;;;;;;5033680;28;20445;-67
2022/02/10 23:11:30;;;;;;;5.30;4.80;;;7.40;99.90;;;;;;5032967;28;20411;-68
2022/02/10 23:13:58;;;;;;;4.80;4.40;;;7.40;99.90;;;;;;5033344;28;20489;-67
2022/02/10 23:16:25;;;;;;;5.27;4.87;;;7.50;99.90;;;;;;5032728;28;20665;-68
2022/02/10 23:18:51;;;;;;;5.67;5.10;;;7.50;99.90;;;;;;5033117;28;20419;-68
2022/02/10 23:21:17;;;;;;;6.47;5.97;;;7.60;99.90;;;;;;5032615;28;20486;-68
2022/02/10 23:23:46;;;;;;;5.73;5.23;;;7.60;99.90;;;;;;5033429;28;20470;-70
2022/02/10 23:26:18;;;;;;;6.47;5.87;;;7.60;99.90;;;;;;5032839;28;20457;-68
2022/02/10 23:28:53;;;;;;;6.10;5.60;;;7.70;99.90;;;;;;5033530;28;20421;-68
2022/02/10 23:31:21;;;;;;;5.57;5.07;;;7.70;99.90;;;;;;5032478;28;20391;-68
2022/02/10 23:33:56;;;;;;;5.40;5.00;;;7.80;99.90;;;;;;5032935;28;20431;-68
2022/02/10 23:36:48;;;;;;;5.63;5.13;;;7.80;99.90;;;;;;5032378;28;20553;-68
2022/02/10 23:39:26;;;;;;;5.77;5.17;;;7.90;99.90;;;;;;5032313;28;20424;-68
2022/02/10 23:44:29;;;;;;;5.13;4.63;;;8.00;99.90;;;;;;5032048;28;20483;-68
2022/02/10 23:46:56;;;;;;;4.97;4.33;;;8.00;99.90;;;;;;5015170;28;20885;-69
2022/02/10 23:49:25;;;;;;;4.80;4.40;;;8.00;99.90;;;;;;5030217;28;20755;-68
2022/02/10 23:52:00;;;;;;;5.37;4.97;;;8.00;99.90;;;;;;5033216;28;20920;-68
2022/02/10 23:54:29;;;;;;;4.80;4.40;;;7.90;99.90;;;;;;5032415;28;21131;-68
2022/02/10 23:57:08;;;;;;;4.43;4.00;;;7.90;99.90;;;;;;4998714;28;20928;-68
